Airfield :
LOGIN :

Register | Disclaimer

   EN    FR    IT 

 










Legend :    VFR   Marginal VFR   IFR   Intensive IFR   Very Intensive IFR
Visi :
Ceiling :
>= 8 km
>= 3000ft
5 to 8 km
1000 to 3000 ft
1500m to 5 km
500 to 1000 ft
800 to 1500m
200 to 500 ft
< 800m
< 200 ft
Symbols :   Thunderstorms  Fog  Heavy snow  Heavy precipitations  Wind > 20 kt
SIGMETs :     Misc.  Thunderstorms  Icing  Turbulence  Mountain Waves  Volcanic Ashes






- Airport Elevation : 28 ft
- IATA code : SOZ


LFKS - Solenzara

CURRENT METAR :
  • 230100Z AUTO 27004KT 9999 BKN027/// BKN036/// OVC044/// ///TCU 14/12 Q1006

EXPIRED METARs :
  • 230030Z AUTO 27004KT 240V310 9999 FEW027 SCT042 BKN084 14/11 Q1006
  • 230000Z AUTO 23004KT 200V260 9999 SCT027/// BKN037/// BKN056/// ///TCU 15/12 Q1007
  • 222330Z AUTO 20007KT 9999 FEW033/// BKN052/// OVC200/// ///TCU 16/12 Q1007
  • 222300Z AUTO 19010KT 9999 BKN050/// BKN062/// ///CB 16/12 Q1007
  • 222230Z AUTO 21005KT 170V240 9999 SCT046/// BKN058/// BKN140/// ///CB 14/12 Q1007

TAF TAF LFKS
Valid from the 22 at 15:00 until the 23 at 15:00 UTC


221400Z 2215/2315 18010KT 9999 BKN030TCU BKN080
TEMPO 2216/2315 4000 -SHRA SCT015 BKN030TCU



MET'MAP, your aeronautical weather chart ! - Copyright ORBIFLY December 2007 - Disclaimer

ORBIFLY MET'MAP TEAM :

Programming & Development : Alexandra Zaïnal
Concept & Development : Baudouin d'Aumeries
Co-Development & Prog : Marc-Olivier Méhu
Technical & hardware support : Manuel Goepfert

Contact : metmap@orbifly.com




SOURCES & CREDITS :

   NOAA